sensor_id;sensor_type;location;lat;lon;timestamp;pressure;altitude;pressure_sealevel;temperature;humidity
31911;BME280;18457;52.432;16.914;2022-09-09T00:00:31;100013.41;;;18.45;100.00
31911;BME280;18457;52.432;16.914;2022-09-09T00:03:27;100014.23;;;18.43;100.00
31911;BME280;18457;52.432;16.914;2022-09-09T00:06:08;100004.30;;;18.44;100.00
31911;BME280;18457;52.432;16.914;2022-09-09T00:08:53;100004.38;;;18.40;100.00
31911;BME280;18457;52.432;16.914;2022-09-09T00:11:30;100003.88;;;18.39;100.00
31911;BME280;18457;52.432;16.914;2022-09-09T00:14:14;99997.11;;;18.36;100.00
31911;BME280;18457;52.432;16.914;2022-09-09T00:16:54;99991.56;;;18.34;100.00
31911;BME280;18457;52.432;16.914;2022-09-09T00:19:33;99988.61;;;18.40;100.00
31911;BME280;18457;52.432;16.914;2022-09-09T00:22:16;99984.54;;;18.32;100.00
31911;BME280;18457;52.432;16.914;2022-09-09T00:24:51;99985.55;;;18.34;100.00
31911;BME280;18457;52.432;16.914;2022-09-09T00:27:28;99991.80;;;18.33;100.00
31911;BME280;18457;52.432;16.914;2022-09-09T00:30:15;99997.73;;;18.25;100.00
31911;BME280;18457;52.432;16.914;2022-09-09T00:32:50;100001.09;;;18.27;100.00
31911;BME280;18457;52.432;16.914;2022-09-09T00:35:31;100001.56;;;18.29;100.00
31911;BME280;18457;52.432;16.914;2022-09-09T00:38:12;100002.83;;;18.35;100.00
31911;BME280;18457;52.432;16.914;2022-09-09T00:40:51;99999.98;;;18.37;100.00
31911;BME280;18457;52.432;16.914;2022-09-09T00:43:31;100001.95;;;18.25;100.00
31911;BME280;18457;52.432;16.914;2022-09-09T00:46:26;100007.62;;;18.28;100.00
31911;BME280;18457;52.432;16.914;2022-09-09T00:49:08;100006.61;;;18.30;100.00
31911;BME280;18457;52.432;16.914;2022-09-09T00:51:51;100005.59;;;18.32;100.00
31911;BME280;18457;52.432;16.914;2022-09-09T00:54:35;100003.59;;;18.31;100.00
31911;BME280;18457;52.432;16.914;2022-09-09T00:57:18;100007.48;;;18.34;100.00
31911;BME280;18457;52.432;16.914;2022-09-09T01:00:02;100009.98;;;18.34;100.00
31911;BME280;18457;52.432;16.914;2022-09-09T01:02:42;100012.31;;;18.36;100.00
31911;BME280;18457;52.432;16.914;2022-09-09T01:05:22;100014.09;;;18.39;100.00
31911;BME280;18457;52.432;16.914;2022-09-09T01:07:59;100021.71;;;18.34;100.00
31911;BME280;18457;52.432;16.914;2022-09-09T01:10:41;100018.77;;;18.31;100.00
31911;BME280;18457;52.432;16.914;2022-09-09T01:13:22;100020.35;;;18.36;100.00
31911;BME280;18457;52.432;16.914;2022-09-09T01:15:55;100016.14;;;18.33;100.00
31911;BME280;18457;52.432;16.914;2022-09-09T01:18:35;100018.05;;;18.31;100.00
31911;BME280;18457;52.432;16.914;2022-09-09T01:21:18;100019.55;;;18.24;100.00
31911;BME280;18457;52.432;16.914;2022-09-09T01:24:17;100023.61;;;18.30;100.00
31911;BME280;18457;52.432;16.914;2022-09-09T01:27:06;100027.00;;;18.28;100.00
31911;BME280;18457;52.432;16.914;2022-09-09T01:29:39;100030.25;;;18.26;100.00
31911;BME280;18457;52.432;16.914;2022-09-09T01:32:39;100032.35;;;18.25;100.00
31911;BME280;18457;52.432;16.914;2022-09-09T01:35:19;100032.34;;;18.22;100.00
31911;BME280;18457;52.432;16.914;2022-09-09T01:37:54;100038.29;;;18.17;100.00
31911;BME280;18457;52.432;16.914;2022-09-09T01:40:26;100043.11;;;18.16;100.00
31911;BME280;18457;52.432;16.914;2022-09-09T01:42:59;100040.19;;;18.13;100.00
31911;BME280;18457;52.432;16.914;2022-09-09T01:45:31;100041.02;;;18.11;100.00
31911;BME280;18457;52.432;16.914;2022-09-09T01:48:03;100039.69;;;18.09;100.00
31911;BME280;18457;52.432;16.914;2022-09-09T01:50:54;100043.53;;;18.06;100.00
31911;BME280;18457;52.432;16.914;2022-09-09T01:53:25;100045.55;;;18.03;100.00
31911;BME280;18457;52.432;16.914;2022-09-09T01:56:07;100044.94;;;18.01;99.99
31911;BME280;18457;52.432;16.914;2022-09-09T01:58:55;100039.75;;;17.96;100.00
31911;BME280;18457;52.432;16.914;2022-09-09T02:01:42;100038.48;;;17.96;100.00
31911;BME280;18457;52.432;16.914;2022-09-09T02:04:27;100040.83;;;17.94;100.00
31911;BME280;18457;52.432;16.914;2022-09-09T02:07:06;100043.33;;;17.92;100.00
31911;BME280;18457;52.432;16.914;2022-09-09T02:09:41;100052.06;;;17.89;100.00
31911;BME280;18457;52.432;16.914;2022-09-09T02:12:18;100048.76;;;17.86;100.00
31911;BME280;18457;52.432;16.914;2022-09-09T02:15:00;100051.27;;;17.84;100.00
31911;BME280;18457;52.432;16.914;2022-09-09T02:17:42;100050.77;;;17.81;100.00
31911;BME280;18457;52.432;16.914;2022-09-09T02:20:17;100048.48;;;17.79;100.00
31911;BME280;18457;52.432;16.914;2022-09-09T02:22:57;100053.83;;;17.78;100.00
31911;BME280;18457;52.432;16.914;2022-09-09T02:25:30;100054.66;;;17.74;100.00
31911;BME280;18457;52.432;16.914;2022-09-09T02:28:09;100061.46;;;17.73;100.00
31911;BME280;18457;52.432;16.914;2022-09-09T02:30:43;100063.46;;;17.61;100.00
31911;BME280;18457;52.432;16.914;2022-09-09T02:33:18;100063.41;;;17.52;100.00
31911;BME280;18457;52.432;16.914;2022-09-09T02:35:53;100061.90;;;17.44;100.00
31911;BME280;18457;52.432;16.914;2022-09-09T02:38:35;100062.27;;;17.37;100.00
31911;BME280;18457;52.432;16.914;2022-09-09T02:41:12;100068.92;;;17.45;100.00
31911;BME280;18457;52.432;16.914;2022-09-09T02:43:43;100062.61;;;17.47;100.00
31911;BME280;18457;52.432;16.914;2022-09-09T02:46:35;100061.34;;;17.50;100.00
31911;BME280;18457;52.432;16.914;2022-09-09T02:49:11;100062.86;;;17.52;100.00
31911;BME280;18457;52.432;16.914;2022-09-09T02:51:50;100065.88;;;17.51;100.00
31911;BME280;18457;52.432;16.914;2022-09-09T02:54:29;100065.48;;;17.51;100.00
31911;BME280;18457;52.432;16.914;2022-09-09T02:57:08;100072.88;;;17.46;100.00
31911;BME280;18457;52.432;16.914;2022-09-09T02:59:42;100076.30;;;17.47;100.00
31911;BME280;18457;52.432;16.914;2022-09-09T03:02:15;100076.52;;;17.50;100.00
31911;BME280;18457;52.432;16.914;2022-09-09T03:04:48;100080.05;;;17.52;100.00
31911;BME280;18457;52.432;16.914;2022-09-09T03:07:22;100085.02;;;17.38;100.00
31911;BME280;18457;52.432;16.914;2022-09-09T03:09:53;100085.99;;;17.43;100.00
31911;BME280;18457;52.432;16.914;2022-09-09T03:12:27;100086.57;;;17.43;100.00
31911;BME280;18457;52.432;16.914;2022-09-09T03:14:58;100085.36;;;17.26;100.00
31911;BME280;18457;52.432;16.914;2022-09-09T03:17:30;100087.21;;;17.29;100.00
31911;BME280;18457;52.432;16.914;2022-09-09T03:20:02;100088.12;;;17.22;100.00
31911;BME280;18457;52.432;16.914;2022-09-09T03:22:34;100091.51;;;17.11;100.00
31911;BME280;18457;52.432;16.914;2022-09-09T03:25:08;100088.64;;;17.16;100.00
31911;BME280;18457;52.432;16.914;2022-09-09T03:27:39;100090.64;;;17.29;100.00
31911;BME280;18457;52.432;16.914;2022-09-09T03:30:12;100091.48;;;17.37;100.00
31911;BME280;18457;52.432;16.914;2022-09-09T03:32:45;100091.02;;;17.42;100.00
31911;BME280;18457;52.432;16.914;2022-09-09T03:35:18;100095.48;;;17.47;100.00
31911;BME280;18457;52.432;16.914;2022-09-09T03:37:50;100099.90;;;17.50;100.00
31911;BME280;18457;52.432;16.914;2022-09-09T03:40:22;100097.55;;;17.49;100.00
31911;BME280;18457;52.432;16.914;2022-09-09T03:42:53;100103.50;;;17.51;100.00
31911;BME280;18457;52.432;16.914;2022-09-09T03:45:25;100103.61;;;17.49;100.00
31911;BME280;18457;52.432;16.914;2022-09-09T03:47:57;100106.63;;;17.50;99.96
31911;BME280;18457;52.432;16.914;2022-09-09T03:50:29;100106.90;;;17.52;99.84
31911;BME280;18457;52.432;16.914;2022-09-09T03:53:00;100110.77;;;17.54;99.85
31911;BME280;18457;52.432;16.914;2022-09-09T03:55:32;100112.30;;;17.53;99.76
31911;BME280;18457;52.432;16.914;2022-09-09T03:58:04;100114.69;;;17.53;99.58
31911;BME280;18457;52.432;16.914;2022-09-09T04:00:36;100115.61;;;17.53;99.72
31911;BME280;18457;52.432;16.914;2022-09-09T04:03:13;100119.09;;;17.50;99.45
31911;BME280;18457;52.432;16.914;2022-09-09T04:05:46;100117.48;;;17.42;99.99
31911;BME280;18457;52.432;16.914;2022-09-09T04:08:20;100115.30;;;17.16;100.00
31911;BME280;18457;52.432;16.914;2022-09-09T04:10:53;100117.98;;;17.10;100.00
31911;BME280;18457;52.432;16.914;2022-09-09T04:13:29;100118.67;;;17.21;100.00
31911;BME280;18457;52.432;16.914;2022-09-09T04:16:02;100124.14;;;17.31;100.00
31911;BME280;18457;52.432;16.914;2022-09-09T04:18:36;100126.98;;;17.39;100.00
31911;BME280;18457;52.432;16.914;2022-09-09T04:21:08;100129.71;;;17.42;100.00
31911;BME280;18457;52.432;16.914;2022-09-09T04:23:41;100129.27;;;17.37;100.00
31911;BME280;18457;52.432;16.914;2022-09-09T04:26:13;100129.45;;;17.40;100.00
31911;BME280;18457;52.432;16.914;2022-09-09T04:28:47;100129.05;;;17.31;100.00
31911;BME280;18457;52.432;16.914;2022-09-09T04:31:22;100133.38;;;17.36;100.00
31911;BME280;18457;52.432;16.914;2022-09-09T04:33:57;100134.54;;;17.37;99.68
31911;BME280;18457;52.432;16.914;2022-09-09T04:36:29;100137.33;;;17.39;99.28
31911;BME280;18457;52.432;16.914;2022-09-09T04:39:04;100135.46;;;17.31;99.44
31911;BME280;18457;52.432;16.914;2022-09-09T04:41:35;100135.13;;;17.37;98.54
31911;BME280;18457;52.432;16.914;2022-09-09T04:44:07;100134.54;;;17.34;98.46
31911;BME280;18457;52.432;16.914;2022-09-09T04:46:38;100137.67;;;17.18;99.84
31911;BME280;18457;52.432;16.914;2022-09-09T04:49:11;100138.34;;;17.22;99.76
31911;BME280;18457;52.432;16.914;2022-09-09T04:51:45;100142.13;;;16.93;100.00
31911;BME280;18457;52.432;16.914;2022-09-09T04:54:17;100143.85;;;17.02;100.00
31911;BME280;18457;52.432;16.914;2022-09-09T04:56:51;100150.89;;;17.10;100.00
31911;BME280;18457;52.432;16.914;2022-09-09T04:59:22;100151.02;;;17.17;100.00
31911;BME280;18457;52.432;16.914;2022-09-09T05:01:56;100151.98;;;17.19;99.81
31911;BME280;18457;52.432;16.914;2022-09-09T05:04:28;100153.00;;;17.24;99.30
31911;BME280;18457;52.432;16.914;2022-09-09T05:07:00;100152.96;;;17.12;99.92
31911;BME280;18457;52.432;16.914;2022-09-09T05:09:31;100161.07;;;17.17;99.98
31911;BME280;18457;52.432;16.914;2022-09-09T05:12:04;100158.65;;;17.18;100.00
31911;BME280;18457;52.432;16.914;2022-09-09T05:14:38;100159.68;;;16.99;100.00
31911;BME280;18457;52.432;16.914;2022-09-09T05:17:11;100163.87;;;16.96;100.00
31911;BME280;18457;52.432;16.914;2022-09-09T05:19:43;100166.24;;;17.06;100.00
31911;BME280;18457;52.432;16.914;2022-09-09T05:22:19;100168.75;;;17.20;99.99
31911;BME280;18457;52.432;16.914;2022-09-09T05:24:53;100171.77;;;17.08;100.00
31911;BME280;18457;52.432;16.914;2022-09-09T05:27:25;100174.06;;;16.84;100.00
31911;BME280;18457;52.432;16.914;2022-09-09T05:29:57;100175.94;;;16.83;100.00
31911;BME280;18457;52.432;16.914;2022-09-09T05:32:30;100174.20;;;16.88;100.00
31911;BME280;18457;52.432;16.914;2022-09-09T05:35:05;100172.70;;;16.85;100.00
31911;BME280;18457;52.432;16.914;2022-09-09T05:37:38;100166.73;;;16.87;100.00
31911;BME280;18457;52.432;16.914;2022-09-09T05:40:10;100172.51;;;16.82;100.00
31911;BME280;18457;52.432;16.914;2022-09-09T05:42:43;100175.17;;;16.87;100.00
31911;BME280;18457;52.432;16.914;2022-09-09T05:45:15;100172.70;;;16.82;100.00
31911;BME280;18457;52.432;16.914;2022-09-09T05:47:52;100176.45;;;16.97;100.00
31911;BME280;18457;52.432;16.914;2022-09-09T05:50:25;100174.98;;;17.03;100.00
31911;BME280;18457;52.432;16.914;2022-09-09T05:53:01;100174.40;;;17.10;100.00
31911;BME280;18457;52.432;16.914;2022-09-09T05:55:34;100174.27;;;17.19;100.00
31911;BME280;18457;52.432;16.914;2022-09-09T05:58:06;100175.48;;;17.27;99.81
31911;BME280;18457;52.432;16.914;2022-09-09T06:00:37;100174.34;;;17.15;99.79
31911;BME280;18457;52.432;16.914;2022-09-09T06:03:10;100182.69;;;17.03;100.00
31911;BME280;18457;52.432;16.914;2022-09-09T06:05:43;100178.77;;;17.08;100.00
31911;BME280;18457;52.432;16.914;2022-09-09T06:08:15;100176.81;;;17.19;100.00
31911;BME280;18457;52.432;16.914;2022-09-09T06:10:47;100183.88;;;17.21;99.91
31911;BME280;18457;52.432;16.914;2022-09-09T06:13:19;100187.40;;;17.16;100.00
31911;BME280;18457;52.432;16.914;2022-09-09T06:15:54;100187.90;;;17.08;100.00
31911;BME280;18457;52.432;16.914;2022-09-09T06:18:27;100182.58;;;17.14;100.00
31911;BME280;18457;52.432;16.914;2022-09-09T06:21:01;100182.14;;;17.23;100.00
31911;BME280;18457;52.432;16.914;2022-09-09T06:23:35;100184.55;;;17.35;100.00
31911;BME280;18457;52.432;16.914;2022-09-09T06:26:10;100184.73;;;17.31;100.00
31911;BME280;18457;52.432;16.914;2022-09-09T06:28:42;100184.48;;;17.36;100.00
31911;BME280;18457;52.432;16.914;2022-09-09T06:31:15;100185.84;;;17.38;100.00
31911;BME280;18457;52.432;16.914;2022-09-09T06:33:49;100186.79;;;17.51;100.00
31911;BME280;18457;52.432;16.914;2022-09-09T06:36:23;100186.64;;;17.60;99.84
31911;BME280;18457;52.432;16.914;2022-09-09T06:38:55;100183.16;;;17.66;99.80
31911;BME280;18457;52.432;16.914;2022-09-09T06:41:29;100182.35;;;17.77;99.93
31911;BME280;18457;52.432;16.914;2022-09-09T06:44:01;100188.27;;;17.79;100.00
31911;BME280;18457;52.432;16.914;2022-09-09T06:46:37;100191.70;;;17.90;99.15
31911;BME280;18457;52.432;16.914;2022-09-09T06:49:10;100195.46;;;17.97;97.29
31911;BME280;18457;52.432;16.914;2022-09-09T06:51:42;100196.94;;;18.00;96.98
31911;BME280;18457;52.432;16.914;2022-09-09T06:54:15;100191.00;;;18.04;97.39
31911;BME280;18457;52.432;16.914;2022-09-09T06:56:48;100192.55;;;18.03;96.56
31911;BME280;18457;52.432;16.914;2022-09-09T06:59:24;100187.45;;;18.03;96.88
31911;BME280;18457;52.432;16.914;2022-09-09T07:01:57;100189.88;;;18.11;96.45
31911;BME280;18457;52.432;16.914;2022-09-09T07:04:30;100194.98;;;17.96;97.43
31911;BME280;18457;52.432;16.914;2022-09-09T07:07:01;100197.14;;;17.81;97.98
31911;BME280;18457;52.432;16.914;2022-09-09T07:09:34;100194.05;;;17.71;99.44
31911;BME280;18457;52.432;16.914;2022-09-09T07:12:07;100195.23;;;17.73;98.96
31911;BME280;18457;52.432;16.914;2022-09-09T07:14:40;100199.14;;;17.91;98.05
31911;BME280;18457;52.432;16.914;2022-09-09T07:17:13;100196.28;;;18.02;97.16
31911;BME280;18457;52.432;16.914;2022-09-09T07:19:47;100192.86;;;17.85;98.11
31911;BME280;18457;52.432;16.914;2022-09-09T07:22:19;100197.70;;;17.87;97.87
31911;BME280;18457;52.432;16.914;2022-09-09T07:24:51;100197.10;;;17.91;98.94
31911;BME280;18457;52.432;16.914;2022-09-09T07:27:23;100196.00;;;17.94;97.97
31911;BME280;18457;52.432;16.914;2022-09-09T07:29:55;100197.61;;;18.04;96.83
31911;BME280;18457;52.432;16.914;2022-09-09T07:32:28;100199.77;;;18.07;96.62
31911;BME280;18457;52.432;16.914;2022-09-09T07:35:00;100196.98;;;17.80;98.67
31911;BME280;18457;52.432;16.914;2022-09-09T07:37:32;100195.15;;;17.83;98.69
31911;BME280;18457;52.432;16.914;2022-09-09T07:40:05;100197.39;;;17.95;97.86
31911;BME280;18457;52.432;16.914;2022-09-09T07:42:37;100195.68;;;17.97;98.64
31911;BME280;18457;52.432;16.914;2022-09-09T07:45:09;100192.77;;;17.90;99.62
31911;BME280;18457;52.432;16.914;2022-09-09T07:47:41;100200.36;;;17.94;98.78
31911;BME280;18457;52.432;16.914;2022-09-09T07:50:14;100203.29;;;17.98;97.63
31911;BME280;18457;52.432;16.914;2022-09-09T07:52:46;100204.77;;;17.94;97.92
31911;BME280;18457;52.432;16.914;2022-09-09T07:55:18;100207.19;;;18.09;96.71
31911;BME280;18457;52.432;16.914;2022-09-09T07:57:50;100205.25;;;18.20;95.82
31911;BME280;18457;52.432;16.914;2022-09-09T08:00:22;100207.85;;;18.29;95.54
31911;BME280;18457;52.432;16.914;2022-09-09T08:02:55;100210.92;;;18.36;94.43
31911;BME280;18457;52.432;16.914;2022-09-09T08:05:27;100211.77;;;18.44;93.98
31911;BME280;18457;52.432;16.914;2022-09-09T08:08:00;100211.64;;;18.52;94.21
31911;BME280;18457;52.432;16.914;2022-09-09T08:10:34;100213.05;;;18.56;94.42
31911;BME280;18457;52.432;16.914;2022-09-09T08:13:06;100214.60;;;18.55;93.69
31911;BME280;18457;52.432;16.914;2022-09-09T08:15:49;100220.93;;;18.62;93.11
31911;BME280;18457;52.432;16.914;2022-09-09T08:18:21;100220.84;;;18.66;92.24
31911;BME280;18457;52.432;16.914;2022-09-09T08:20:53;100220.55;;;18.68;91.76
31911;BME280;18457;52.432;16.914;2022-09-09T08:23:25;100220.02;;;18.61;92.07
31911;BME280;18457;52.432;16.914;2022-09-09T08:26:04;100222.39;;;18.59;92.60
31911;BME280;18457;52.432;16.914;2022-09-09T08:28:37;100228.18;;;18.69;92.11
31911;BME280;18457;52.432;16.914;2022-09-09T08:31:13;100224.81;;;18.76;92.00
31911;BME280;18457;52.432;16.914;2022-09-09T08:33:45;100222.35;;;18.80;90.16
31911;BME280;18457;52.432;16.914;2022-09-09T08:36:19;100221.73;;;18.81;89.83
31911;BME280;18457;52.432;16.914;2022-09-09T08:38:53;100224.09;;;18.82;90.30
31911;BME280;18457;52.432;16.914;2022-09-09T08:41:41;100226.62;;;18.91;89.61
31911;BME280;18457;52.432;16.914;2022-09-09T08:44:22;100219.36;;;18.87;88.34
31911;BME280;18457;52.432;16.914;2022-09-09T08:47:04;100222.69;;;18.92;88.76
31911;BME280;18457;52.432;16.914;2022-09-09T08:49:58;100226.30;;;19.08;88.21
31911;BME280;18457;52.432;16.914;2022-09-09T08:52:39;100231.41;;;19.20;87.24
31911;BME280;18457;52.432;16.914;2022-09-09T08:55:25;100228.30;;;19.26;87.01
31911;BME280;18457;52.432;16.914;2022-09-09T08:57:57;100230.98;;;19.36;87.23
31911;BME280;18457;52.432;16.914;2022-09-09T09:00:39;100232.95;;;19.40;85.30
31911;BME280;18457;52.432;16.914;2022-09-09T09:03:18;100232.82;;;19.51;85.74
31911;BME280;18457;52.432;16.914;2022-09-09T09:06:01;100228.73;;;19.66;86.09
31911;BME280;18457;52.432;16.914;2022-09-09T09:08:43;100229.65;;;19.68;84.21
31911;BME280;18457;52.432;16.914;2022-09-09T09:11:18;100231.05;;;19.69;83.11
31911;BME280;18457;52.432;16.914;2022-09-09T09:13:56;100229.49;;;19.79;83.36
31911;BME280;18457;52.432;16.914;2022-09-09T09:16:32;100229.40;;;19.80;82.13
31911;BME280;18457;52.432;16.914;2022-09-09T09:19:10;100226.05;;;19.87;82.28
31911;BME280;18457;52.432;16.914;2022-09-09T09:21:48;100231.28;;;19.96;81.62
31911;BME280;18457;52.432;16.914;2022-09-09T09:24:28;100228.34;;;20.08;81.78
31911;BME280;18457;52.432;16.914;2022-09-09T09:27:11;100228.61;;;20.09;81.15
31911;BME280;18457;52.432;16.914;2022-09-09T09:29:45;100229.90;;;20.21;81.90
31911;BME280;18457;52.432;16.914;2022-09-09T09:32:51;100234.37;;;20.28;80.15
31911;BME280;18457;52.432;16.914;2022-09-09T09:35:24;100236.39;;;20.39;78.78
31911;BME280;18457;52.432;16.914;2022-09-09T09:37:56;100234.52;;;20.58;79.30
31911;BME280;18457;52.432;16.914;2022-09-09T09:40:54;100239.30;;;20.79;79.29
31911;BME280;18457;52.432;16.914;2022-09-09T09:43:30;100239.02;;;20.94;79.52
31911;BME280;18457;52.432;16.914;2022-09-09T09:46:17;100239.13;;;21.13;79.46
31911;BME280;18457;52.432;16.914;2022-09-09T09:48:59;100239.73;;;21.23;77.31
31911;BME280;18457;52.432;16.914;2022-09-09T09:51:33;100235.23;;;21.14;75.48
31911;BME280;18457;52.432;16.914;2022-09-09T09:54:21;100235.34;;;21.28;74.10
31911;BME280;18457;52.432;16.914;2022-09-09T09:56:58;100238.95;;;21.34;73.94
31911;BME280;18457;52.432;16.914;2022-09-09T09:59:40;100243.85;;;21.30;74.51
31911;BME280;18457;52.432;16.914;2022-09-09T10:02:22;100239.98;;;21.27;74.01
31911;BME280;18457;52.432;16.914;2022-09-09T10:05:12;100233.80;;;21.54;74.31
31911;BME280;18457;52.432;16.914;2022-09-09T10:07:46;100233.83;;;21.79;73.80
31911;BME280;18457;52.432;16.914;2022-09-09T10:10:23;100234.75;;;21.77;70.10
31911;BME280;18457;52.432;16.914;2022-09-09T10:13:05;100232.42;;;21.86;68.81
31911;BME280;18457;52.432;16.914;2022-09-09T10:15:45;100234.08;;;21.99;68.73
31911;BME280;18457;52.432;16.914;2022-09-09T10:18:36;100236.96;;;22.09;69.66
31911;BME280;18457;52.432;16.914;2022-09-09T10:21:24;100237.74;;;22.09;69.73
31911;BME280;18457;52.432;16.914;2022-09-09T10:24:15;100243.63;;;22.01;69.47
31911;BME280;18457;52.432;16.914;2022-09-09T10:26:55;100240.24;;;22.31;67.90
31911;BME280;18457;52.432;16.914;2022-09-09T10:29:42;100241.64;;;22.49;66.98
31911;BME280;18457;52.432;16.914;2022-09-09T10:32:33;100250.30;;;22.23;66.98
31911;BME280;18457;52.432;16.914;2022-09-09T10:35:26;100253.69;;;22.14;67.84
31911;BME280;18457;52.432;16.914;2022-09-09T10:38:11;100250.23;;;22.40;67.72
31911;BME280;18457;52.432;16.914;2022-09-09T10:40:48;100252.05;;;22.51;66.70
31911;BME280;18457;52.432;16.914;2022-09-09T10:43:42;100253.73;;;22.40;67.05
31911;BME280;18457;52.432;16.914;2022-09-09T10:46:23;100258.63;;;22.41;66.52
31911;BME280;18457;52.432;16.914;2022-09-09T10:49:07;100262.16;;;22.63;64.43
31911;BME280;18457;52.432;16.914;2022-09-09T10:51:51;100264.45;;;22.55;64.76
31911;BME280;18457;52.432;16.914;2022-09-09T10:54:34;100264.30;;;22.37;65.32
31911;BME280;18457;52.432;16.914;2022-09-09T10:57:15;100262.95;;;22.40;65.39
31911;BME280;18457;52.432;16.914;2022-09-09T10:59:50;100263.88;;;22.45;65.98
31911;BME280;18457;52.432;16.914;2022-09-09T11:02:29;100261.27;;;22.53;65.84
31911;BME280;18457;52.432;16.914;2022-09-09T11:05:03;100255.04;;;22.43;65.91
31911;BME280;18457;52.432;16.914;2022-09-09T11:07:41;100256.80;;;22.29;65.19
31911;BME280;18457;52.432;16.914;2022-09-09T11:10:23;100254.30;;;22.23;64.74
31911;BME280;18457;52.432;16.914;2022-09-09T11:12:59;100259.68;;;22.28;64.74
31911;BME280;18457;52.432;16.914;2022-09-09T11:15:36;100257.64;;;22.50;64.89
31911;BME280;18457;52.432;16.914;2022-09-09T11:18:15;100257.80;;;22.91;64.26
31911;BME280;18457;52.432;16.914;2022-09-09T11:20:50;100258.34;;;23.28;61.97
31911;BME280;18457;52.432;16.914;2022-09-09T11:23:29;100254.61;;;23.57;60.78
31911;BME280;18457;52.432;16.914;2022-09-09T11:26:15;100255.30;;;23.78;57.89
31911;BME280;18457;52.432;16.914;2022-09-09T11:28:59;100254.30;;;24.01;56.30
31911;BME280;18457;52.432;16.914;2022-09-09T11:31:45;100254.37;;;24.14;55.70
31911;BME280;18457;52.432;16.914;2022-09-09T11:34:35;100261.36;;;24.34;55.60
31911;BME280;18457;52.432;16.914;2022-09-09T11:37:36;100262.78;;;24.37;54.73
31911;BME280;18457;52.432;16.914;2022-09-09T11:40:18;100263.96;;;24.36;55.20
31911;BME280;18457;52.432;16.914;2022-09-09T11:43:02;100262.03;;;24.40;56.75
31911;BME280;18457;52.432;16.914;2022-09-09T11:45:37;100264.92;;;24.81;56.44
31911;BME280;18457;52.432;16.914;2022-09-09T11:48:25;100264.11;;;24.84;54.63
31911;BME280;18457;52.432;16.914;2022-09-09T11:51:03;100258.40;;;24.80;54.36
31911;BME280;18457;52.432;16.914;2022-09-09T11:53:52;100259.20;;;24.84;53.30
31911;BME280;18457;52.432;16.914;2022-09-09T11:56:29;100254.22;;;24.72;52.42
31911;BME280;18457;52.432;16.914;2022-09-09T11:59:05;100251.25;;;24.94;51.56
31911;BME280;18457;52.432;16.914;2022-09-09T12:01:39;100256.40;;;25.01;51.08
31911;BME280;18457;52.432;16.914;2022-09-09T12:04:21;100251.23;;;25.03;50.22
31911;BME280;18457;52.432;16.914;2022-09-09T12:07:05;100249.23;;;25.11;50.01
31911;BME280;18457;52.432;16.914;2022-09-09T12:09:54;100244.31;;;24.61;51.26
31911;BME280;18457;52.432;16.914;2022-09-09T12:12:31;100252.59;;;24.48;51.20
31911;BME280;18457;52.432;16.914;2022-09-09T12:15:22;100241.66;;;24.53;51.24
31911;BME280;18457;52.432;16.914;2022-09-09T12:17:56;100240.53;;;24.57;51.25
31911;BME280;18457;52.432;16.914;2022-09-09T12:20:37;100239.30;;;24.59;51.47
31911;BME280;18457;52.432;16.914;2022-09-09T12:23:19;100239.89;;;24.21;52.23
31911;BME280;18457;52.432;16.914;2022-09-09T12:26:12;100238.59;;;24.12;52.72
31911;BME280;18457;52.432;16.914;2022-09-09T12:28:54;100235.83;;;24.35;52.24
31911;BME280;18457;52.432;16.914;2022-09-09T12:31:33;100235.23;;;24.63;51.84
31911;BME280;18457;52.432;16.914;2022-09-09T12:34:14;100229.61;;;24.69;51.42
31911;BME280;18457;52.432;16.914;2022-09-09T12:36:51;100225.32;;;24.63;50.70
31911;BME280;18457;52.432;16.914;2022-09-09T12:39:31;100227.56;;;24.84;50.63
31911;BME280;18457;52.432;16.914;2022-09-09T12:42:14;100226.56;;;24.80;50.49
31911;BME280;18457;52.432;16.914;2022-09-09T12:44:57;100225.69;;;24.78;50.00
31911;BME280;18457;52.432;16.914;2022-09-09T12:47:37;100224.95;;;24.90;50.04
31911;BME280;18457;52.432;16.914;2022-09-09T12:50:20;100222.55;;;24.93;49.72
31911;BME280;18457;52.432;16.914;2022-09-09T12:52:55;100224.97;;;24.99;48.65
31911;BME280;18457;52.432;16.914;2022-09-09T12:55:32;100222.40;;;25.18;47.97
31911;BME280;18457;52.432;16.914;2022-09-09T12:58:05;100222.75;;;25.05;48.78
31911;BME280;18457;52.432;16.914;2022-09-09T13:00:48;100221.36;;;25.06;48.23
31911;BME280;18457;52.432;16.914;2022-09-09T13:03:22;100230.64;;;24.82;48.73
31911;BME280;18457;52.432;16.914;2022-09-09T13:05:57;100226.41;;;24.74;48.88
31911;BME280;18457;52.432;16.914;2022-09-09T13:08:30;100222.58;;;24.71;49.51
31911;BME280;18457;52.432;16.914;2022-09-09T13:11:06;100222.11;;;24.40;50.98
31911;BME280;18457;52.432;16.914;2022-09-09T13:13:41;100222.80;;;24.70;50.57
31911;BME280;18457;52.432;16.914;2022-09-09T13:16:26;100222.21;;;24.69;50.08
31911;BME280;18457;52.432;16.914;2022-09-09T13:19:07;100216.81;;;24.54;50.61
31911;BME280;18457;52.432;16.914;2022-09-09T13:21:40;100220.20;;;24.54;51.34
31911;BME280;18457;52.432;16.914;2022-09-09T13:24:27;100220.98;;;24.20;50.34
31911;BME280;18457;52.432;16.914;2022-09-09T13:27:01;100218.95;;;24.20;50.35